Time;durP1;ratioP1;P1;durP2;ratioP2;P2;SDS_P1;SDS_P2;PMS_P1;PMS_P2;Temp;Humidity;BMP_temperature;BMP_pressure;BME280_temperature;BME280_humidity;BME280_pressure;Samples;Min_cycle;Max_cycle;Signal;HPM_P1;HPM_P2
2022/05/18 00:02:36;0.00;0.00;0.62;0.00;0.00;0.62;4.97;4.47;;;28.90;30.10;;;;;;2248461;61;20795;-56
2022/05/18 00:05:22;0.00;0.00;0.62;0.00;0.00;0.62;4.77;4.27;;;28.90;30.10;;;;;;2248680;61;20518;-58
2022/05/18 00:08:08;0.00;0.00;0.62;0.00;0.00;0.62;4.10;3.70;;;28.90;30.10;;;;;;2247952;61;20422;-59
2022/05/18 00:10:54;0.00;0.00;0.62;0.00;0.00;0.62;4.90;4.50;;;28.90;30.10;;;;;;2247646;61;20374;-57
2022/05/18 00:13:42;0.00;0.00;0.62;0.00;0.00;0.62;4.83;4.43;;;28.90;30.10;;;;;;2248853;61;20363;-60
2022/05/18 00:16:27;0.00;0.00;0.62;0.00;0.00;0.62;4.80;4.40;;;28.80;30.10;;;;;;2248559;61;20423;-60
2022/05/18 00:19:11;0.00;0.00;0.62;0.00;0.00;0.62;4.57;4.17;;;28.80;30.10;;;;;;2249009;61;20444;-60
2022/05/18 00:21:56;0.00;0.00;0.62;0.00;0.00;0.62;5.40;4.97;;;28.80;30.10;;;;;;2248338;61;20367;-59
2022/05/18 00:24:40;0.00;0.00;0.62;0.00;0.00;0.62;7.10;6.40;;;28.80;30.10;;;;;;2248631;61;20383;-56
2022/05/18 00:27:26;0.00;0.00;0.62;0.00;0.00;0.62;7.50;5.37;;;28.80;30.30;;;;;;2248809;61;20344;-59
2022/05/18 00:30:14;0.00;0.00;0.62;0.00;0.00;0.62;5.13;4.63;;;28.80;30.40;;;;;;2248255;61;20463;-60
2022/05/18 00:33:05;0.00;0.00;0.62;0.00;0.00;0.62;5.70;5.10;;;28.70;30.30;;;;;;2248120;61;20775;-60
2022/05/18 00:35:50;0.00;0.00;0.62;0.00;0.00;0.62;6.27;5.77;;;28.70;30.30;;;;;;2248693;61;20487;-60
2022/05/18 00:38:35;0.00;0.00;0.62;0.00;0.00;0.62;5.63;5.10;;;28.60;30.30;;;;;;2248635;61;20359;-59
2022/05/18 00:41:20;0.00;0.00;0.62;0.00;0.00;0.62;5.90;5.30;;;28.60;30.40;;;;;;2248190;61;20363;-60
2022/05/18 00:44:06;0.00;0.00;0.62;0.00;0.00;0.62;6.10;5.53;;;28.60;30.60;;;;;;2248614;61;20383;-58
2022/05/18 00:46:52;0.00;0.00;0.62;0.00;0.00;0.62;6.03;5.43;;;28.60;30.60;;;;;;2248863;61;20395;-65
2022/05/18 00:49:37;0.00;0.00;0.62;0.00;0.00;0.62;6.63;5.03;;;28.50;30.70;;;;;;2248677;61;20523;-59
2022/05/18 00:52:28;0.00;0.00;0.62;0.00;0.00;0.62;7.60;6.90;;;28.50;30.80;;;;;;2248159;61;20447;-58
2022/05/18 00:55:19;0.00;0.00;0.62;0.00;0.00;0.62;6.47;5.80;;;28.40;30.90;;;;;;2248307;61;20427;-59
2022/05/18 00:58:19;0.00;0.00;0.62;0.00;0.00;0.62;6.50;5.90;;;28.40;31.00;;;;;;2248661;61;20842;-56
2022/05/18 01:01:04;0.00;0.00;0.62;0.00;0.00;0.62;7.10;6.50;;;28.30;31.20;;;;;;2248434;61;20426;-60
2022/05/18 01:03:53;0.00;0.00;0.62;0.00;0.00;0.62;6.17;5.57;;;28.30;31.30;;;;;;2248465;61;20364;-59
2022/05/18 01:06:44;0.00;0.00;0.62;0.00;0.00;0.62;4.97;4.47;;;28.20;31.40;;;;;;2248417;61;20900;-58
2022/05/18 01:09:35;0.00;0.00;0.62;0.00;0.00;0.62;5.80;5.30;;;28.20;31.40;;;;;;2248270;61;20896;-59
2022/05/18 01:12:22;0.00;0.00;0.62;0.00;0.00;0.62;5.53;5.13;;;28.20;31.30;;;;;;2247944;61;20368;-57
2022/05/18 01:15:09;0.00;0.00;0.62;0.00;0.00;0.62;6.60;5.90;;;28.10;31.30;;;;;;2248382;61;20435;-59
2022/05/18 01:17:58;0.00;0.00;0.62;0.00;0.00;0.62;5.67;5.17;;;28.10;31.40;;;;;;2248640;61;20813;-58
2022/05/18 01:20:46;0.00;0.00;0.62;0.00;0.00;0.62;6.50;5.30;;;28.10;31.40;;;;;;2248217;61;20372;-59
2022/05/18 01:23:47;0.00;0.00;0.62;0.00;0.00;0.62;6.30;5.70;;;28.10;31.40;;;;;;2248526;61;20403;-58
2022/05/18 01:26:41;0.00;0.00;0.62;0.00;0.00;0.62;6.77;6.07;;;28.10;32.10;;;;;;2248946;61;20363;-65
2022/05/18 01:29:28;0.00;0.00;0.62;0.00;0.00;0.62;6.67;5.97;;;28.10;31.50;;;;;;2248525;61;20400;-59
2022/05/18 01:32:15;0.00;0.00;0.62;0.00;0.00;0.62;5.73;5.10;;;28.10;32.20;;;;;;2247820;61;20375;-59
2022/05/18 01:35:00;0.00;0.00;0.62;0.00;0.00;0.62;5.80;5.27;;;28.10;31.60;;;;;;2248563;61;20471;-55
2022/05/18 01:37:45;0.00;0.00;0.62;0.00;0.00;0.62;7.40;6.33;;;28.10;31.60;;;;;;2247969;61;20828;-60
2022/05/18 01:40:36;0.00;0.00;0.62;0.00;0.00;0.62;5.93;5.43;;;28.10;31.70;;;;;;2248256;61;20439;-59
2022/05/18 01:43:29;0.00;0.00;0.62;0.00;0.00;0.62;5.87;5.37;;;28.10;31.80;;;;;;2248198;61;20960;-57
2022/05/18 01:46:18;0.00;0.00;0.62;0.00;0.00;0.62;4.60;4.20;;;28.00;31.90;;;;;;2248345;61;20387;-58
2022/05/18 01:49:02;0.00;0.00;0.62;0.00;0.00;0.62;4.83;4.20;;;28.00;31.80;;;;;;2248835;61;20411;-66
2022/05/18 01:51:51;0.00;0.00;0.62;0.00;0.00;0.62;4.10;3.80;;;28.00;31.80;;;;;;2247797;61;20371;-57
2022/05/18 01:54:38;0.00;0.00;0.62;0.00;0.00;0.62;4.70;4.30;;;28.00;31.70;;;;;;2247816;61;20379;-58
2022/05/18 01:57:22;0.00;0.00;0.62;0.00;0.00;0.62;5.43;4.87;;;28.10;31.80;;;;;;2248647;61;20387;-61
2022/05/18 02:00:11;0.00;0.00;0.62;0.00;0.00;0.62;5.97;4.13;;;28.10;31.70;;;;;;2248456;61;20446;-60
2022/05/18 02:02:59;0.00;0.00;0.62;0.00;0.00;0.62;6.33;5.30;;;28.10;31.70;;;;;;2248303;61;20828;-60
2022/05/18 02:05:44;0.00;0.00;0.62;0.00;0.00;0.62;6.73;4.53;;;28.10;31.70;;;;;;2248247;61;20807;-58
2022/05/18 02:08:29;0.00;0.00;0.62;0.00;0.00;0.62;4.60;4.20;;;28.10;31.70;;;;;;2248567;61;20452;-60
2022/05/18 02:11:17;0.00;0.00;0.62;0.00;0.00;0.62;5.27;4.80;;;28.10;31.60;;;;;;2248021;61;20447;-59
2022/05/18 02:14:02;0.00;0.00;0.62;0.00;0.00;0.62;5.17;4.57;;;28.10;31.50;;;;;;2248366;61;20770;-60
2022/05/18 02:16:48;0.00;0.00;0.62;0.00;0.00;0.62;4.87;4.47;;;28.10;31.50;;;;;;2248023;61;20403;-59
2022/05/18 02:19:33;0.00;0.00;0.62;0.00;0.00;0.62;6.00;5.40;;;28.10;31.50;;;;;;2248354;61;20372;-63
2022/05/18 02:22:18;0.00;0.00;0.62;0.00;0.00;0.62;5.57;5.10;;;28.20;31.50;;;;;;2247737;61;20358;-59
2022/05/18 02:25:03;0.00;0.00;0.62;0.00;0.00;0.62;5.30;4.80;;;28.20;31.50;;;;;;2248403;61;20458;-56
2022/05/18 02:27:48;0.00;0.00;0.62;0.00;0.00;0.62;5.33;4.90;;;28.20;31.50;;;;;;2248072;61;20396;-57
2022/05/18 02:30:33;0.00;0.00;0.62;0.00;0.00;0.62;5.37;4.97;;;28.20;31.50;;;;;;2248125;61;21024;-57
2022/05/18 02:33:19;0.00;0.00;0.62;0.00;0.00;0.62;5.40;5.00;;;28.20;31.50;;;;;;2248215;61;20363;-58
2022/05/18 02:36:06;0.00;0.00;0.62;0.00;0.00;0.62;5.17;4.73;;;28.20;31.40;;;;;;2248198;61;20411;-57
2022/05/18 02:38:52;0.00;0.00;0.62;0.00;0.00;0.62;5.40;5.00;;;28.20;31.40;;;;;;2248119;61;20368;-60
2022/05/18 02:41:36;0.00;0.00;0.62;0.00;0.00;0.62;6.33;5.20;;;28.20;31.40;;;;;;2248265;61;20372;-56
2022/05/18 02:44:21;0.00;0.00;0.62;0.00;0.00;0.62;8.20;4.83;;;28.20;31.40;;;;;;2247740;61;20364;-60
2022/05/18 02:47:06;0.00;0.00;0.62;0.00;0.00;0.62;5.53;5.00;;;28.20;31.40;;;;;;2248106;61;20431;-56
2022/05/18 02:49:52;0.00;0.00;0.62;0.00;0.00;0.62;5.47;4.73;;;28.20;31.40;;;;;;2248455;61;20364;-57
2022/05/18 02:52:38;0.00;0.00;0.62;0.00;0.00;0.62;4.90;4.50;;;28.20;31.40;;;;;;2247905;61;20415;-59
2022/05/18 02:58:26;0.00;0.00;0.62;0.00;0.00;0.62;5.37;4.87;;;28.10;31.40;;;;;;2248245;61;20777;-56
2022/05/18 03:01:14;0.00;0.00;0.62;0.00;0.00;0.62;5.00;4.60;;;28.10;31.30;;;;;;2243317;61;20421;-60
2022/05/18 03:03:58;0.00;0.00;0.62;0.00;0.00;0.62;6.47;5.83;;;28.10;31.30;;;;;;2244515;61;20396;-58
2022/05/18 03:06:45;0.00;0.00;0.62;0.00;0.00;0.62;6.30;5.70;;;28.10;31.30;;;;;;2244186;61;20376;-60
2022/05/18 03:09:30;0.00;0.00;0.62;0.00;0.00;0.62;7.50;6.80;;;28.10;31.30;;;;;;2244187;61;20675;-59
2022/05/18 03:12:14;0.00;0.00;0.62;0.00;0.00;0.62;7.03;6.43;;;28.10;31.40;;;;;;2243640;61;20360;-64
2022/05/18 03:15:00;0.00;0.00;0.62;0.00;0.00;0.62;5.50;4.97;;;28.10;31.40;;;;;;2244003;61;20397;-60
2022/05/18 03:17:44;0.00;0.00;0.62;0.00;0.00;0.62;5.70;4.67;;;28.10;31.50;;;;;;2244180;61;20977;-60
2022/05/18 03:23:34;0.00;0.00;0.62;0.00;0.00;0.62;4.93;4.53;;;28.00;31.40;;;;;;2243934;61;20525;-56
2022/05/18 03:26:21;0.00;0.00;0.62;0.00;0.00;0.62;7.47;5.27;;;28.00;31.40;;;;;;2244321;61;20424;-60
2022/05/18 03:29:06;0.00;0.00;0.62;0.00;0.00;0.62;6.53;5.93;;;28.00;31.50;;;;;;2244705;61;20448;-60
2022/05/18 03:31:51;0.00;0.00;0.62;0.00;0.00;0.62;5.83;4.73;;;28.00;31.50;;;;;;2244473;61;20375;-56
2022/05/18 03:34:37;0.00;0.00;0.62;0.00;0.00;0.62;5.63;5.13;;;28.00;31.50;;;;;;2244573;61;20400;-56
2022/05/18 03:37:22;0.00;0.00;0.62;0.00;0.00;0.62;7.50;6.87;;;27.90;31.50;;;;;;2244833;61;20388;-60
2022/05/18 03:40:10;0.00;0.00;0.62;0.00;0.00;0.62;5.43;4.93;;;27.90;31.50;;;;;;2245091;61;20917;-57
2022/05/18 03:42:55;0.00;0.00;0.62;0.00;0.00;0.62;4.67;4.27;;;27.90;32.30;;;;;;2244686;61;20499;-59
2022/05/18 03:45:40;0.00;0.00;0.62;0.00;0.00;0.62;6.03;5.53;;;27.90;31.70;;;;;;2244691;61;20392;-60
2022/05/18 03:48:26;0.00;0.00;0.62;0.00;0.00;0.62;5.50;5.00;;;27.90;31.80;;;;;;2245108;61;20582;-59
2022/05/18 03:51:13;0.00;0.00;0.62;0.00;0.00;0.62;7.37;5.27;;;27.80;31.80;;;;;;2244350;61;21118;-58
2022/05/18 03:53:57;0.00;0.00;0.62;0.00;0.00;0.62;5.37;4.90;;;27.80;31.80;;;;;;2244410;61;20420;-60
2022/05/18 03:56:43;0.00;0.00;0.62;0.00;0.00;0.62;5.60;5.10;;;27.80;31.90;;;;;;2244622;61;20479;-57
2022/05/18 03:59:28;0.00;0.00;0.62;0.00;0.00;0.62;5.50;5.00;;;27.80;31.90;;;;;;2244607;61;20372;-57
2022/05/18 04:02:13;0.00;0.00;0.62;0.00;0.00;0.62;5.07;4.67;;;27.80;31.90;;;;;;2244287;61;20903;-59
2022/05/18 04:04:58;0.00;0.00;0.62;0.00;0.00;0.62;4.50;4.20;;;27.80;31.90;;;;;;2244646;61;20435;-60
2022/05/18 04:07:42;0.00;0.00;0.62;0.00;0.00;0.62;4.90;4.40;;;27.80;31.90;;;;;;2244402;61;20896;-60
2022/05/18 04:10:27;0.00;0.00;0.62;0.00;0.00;0.62;5.00;4.50;;;27.80;31.90;;;;;;2244684;61;20373;-57
2022/05/18 04:13:16;0.00;0.00;0.62;0.00;0.00;0.62;4.30;4.00;;;27.80;31.90;;;;;;2244569;61;20487;-59
2022/05/18 04:16:00;0.00;0.00;0.62;0.00;0.00;0.62;6.40;5.60;;;27.80;31.90;;;;;;2244633;61;20439;-57
2022/05/18 04:18:45;0.00;0.00;0.62;0.00;0.00;0.62;5.20;4.80;;;27.80;31.90;;;;;;2244689;61;20408;-60
2022/05/18 04:21:31;0.00;0.00;0.62;0.00;0.00;0.62;5.97;5.00;;;27.80;31.90;;;;;;2244533;61;20432;-58
2022/05/18 04:24:15;0.00;0.00;0.62;0.00;0.00;0.62;6.57;6.07;;;27.80;31.90;;;;;;2244591;61;20393;-60
2022/05/18 04:26:59;0.00;0.00;0.62;0.00;0.00;0.62;7.20;6.50;;;27.70;31.90;;;;;;2244755;61;20364;-58
2022/05/18 04:29:45;0.00;0.00;0.62;0.00;0.00;0.62;6.70;6.10;;;27.70;31.90;;;;;;2244727;61;20392;-59
2022/05/18 04:32:30;0.00;0.00;0.62;0.00;0.00;0.62;7.93;6.70;;;27.70;31.90;;;;;;2244655;61;20364;-60
2022/05/18 04:35:18;0.00;0.00;0.62;0.00;0.00;0.62;7.23;6.53;;;27.60;31.80;;;;;;2244342;61;20388;-57
2022/05/18 04:38:04;0.00;0.00;0.62;0.00;0.00;0.62;7.80;6.97;;;27.60;31.80;;;;;;2244588;61;20392;-55
2022/05/18 04:40:49;0.00;0.00;0.62;0.00;0.00;0.62;5.60;5.20;;;27.60;31.80;;;;;;2244091;61;20448;-60
2022/05/18 04:43:34;0.00;0.00;0.62;0.00;0.00;0.62;6.50;5.90;;;27.50;31.80;;;;;;2244760;61;20368;-58
2022/05/18 04:46:20;0.00;0.00;0.62;0.00;0.00;0.62;7.00;6.10;;;27.50;31.70;;;;;;2244763;61;20956;-57
2022/05/18 04:49:06;0.00;0.00;0.62;0.00;0.00;0.62;6.03;5.43;;;27.40;31.70;;;;;;2244786;61;20388;-59
2022/05/18 04:51:50;0.00;0.00;0.62;0.00;0.00;0.62;5.90;5.30;;;27.40;31.80;;;;;;2244087;61;20929;-57
2022/05/18 04:54:35;0.00;0.00;0.62;0.00;0.00;0.62;5.00;4.60;;;27.40;32.00;;;;;;2244757;61;20922;-61
2022/05/18 04:57:20;0.00;0.00;0.62;0.00;0.00;0.62;5.53;5.03;;;27.40;32.00;;;;;;2244262;61;20916;-58
2022/05/18 05:00:09;0.00;0.00;0.62;0.00;0.00;0.62;5.80;5.20;;;27.40;32.00;;;;;;2244138;61;21034;-59
2022/05/18 05:02:57;0.00;0.00;0.62;0.00;0.00;0.62;9.30;6.80;;;27.40;32.00;;;;;;2244435;61;20365;-60
2022/05/18 05:05:42;0.00;0.00;0.62;0.00;0.00;0.62;6.67;5.97;;;27.40;32.10;;;;;;2244624;61;20948;-60
2022/05/18 05:08:26;0.00;0.00;0.62;0.00;0.00;0.62;7.23;6.53;;;27.40;32.10;;;;;;2244484;61;20396;-58
2022/05/18 05:11:11;0.00;0.00;0.62;0.00;0.00;0.62;9.23;6.00;;;27.40;32.20;;;;;;2244165;61;20372;-59
2022/05/18 05:13:55;0.00;0.00;0.62;0.00;0.00;0.62;5.63;4.93;;;27.30;32.30;;;;;;2244051;61;20365;-57
2022/05/18 05:16:40;0.00;0.00;0.62;0.00;0.00;0.62;6.47;5.80;;;27.30;32.20;;;;;;2244633;61;20393;-59
2022/05/18 05:19:27;0.00;0.00;0.62;0.00;0.00;0.62;9.43;5.97;;;27.30;32.30;;;;;;2249333;61;20573;-62
2022/05/18 05:22:11;0.00;0.00;0.62;0.00;0.00;0.62;6.33;5.73;;;27.20;32.30;;;;;;2244013;61;20402;-59
2022/05/18 05:24:56;0.00;0.00;0.62;0.00;0.00;0.62;8.07;7.27;;;27.20;32.30;;;;;;2244070;61;20388;-58
2022/05/18 05:27:41;0.00;0.00;0.62;0.00;0.00;0.62;8.10;7.30;;;27.20;32.40;;;;;;2244625;61;20504;-58
2022/05/18 05:30:27;0.00;0.00;0.62;0.00;0.00;0.62;6.53;5.97;;;27.20;32.50;;;;;;2244044;61;20445;-57
2022/05/18 05:33:11;0.00;0.00;0.62;0.00;0.00;0.62;7.20;6.60;;;27.10;32.60;;;;;;2244012;61;20453;-58
2022/05/18 05:35:58;0.00;0.00;0.62;0.00;0.00;0.62;7.83;6.77;;;27.10;32.60;;;;;;2244240;61;20504;-57
2022/05/18 05:38:42;0.00;0.00;0.62;0.00;0.00;0.62;6.83;6.13;;;27.10;32.70;;;;;;2244885;61;20515;-58
2022/05/18 05:41:27;0.00;0.00;0.62;0.00;0.00;0.62;6.17;5.57;;;27.10;32.80;;;;;;2243838;61;20405;-58
2022/05/18 05:44:13;0.00;0.00;0.62;0.00;0.00;0.62;6.33;5.73;;;27.00;32.80;;;;;;2244342;61;20768;-58
2022/05/18 05:47:03;0.00;0.00;0.62;0.00;0.00;0.62;7.53;6.23;;;27.00;32.80;;;;;;2244638;61;20375;-61
2022/05/18 05:49:47;0.00;0.00;0.62;0.00;0.00;0.62;6.73;6.00;;;27.10;32.90;;;;;;2244396;61;20480;-59
2022/05/18 05:52:33;0.00;0.00;0.62;0.00;0.00;0.62;6.97;6.37;;;27.10;32.90;;;;;;2243871;61;20361;-61
2022/05/18 05:55:18;0.00;0.00;0.62;0.00;0.00;0.62;7.13;6.50;;;27.00;32.80;;;;;;2244314;61;20396;-59
2022/05/18 05:58:03;0.00;0.00;0.62;0.00;0.00;0.62;6.70;6.00;;;27.00;32.80;;;;;;2244331;61;20448;-57
2022/05/18 06:00:49;0.00;0.00;0.62;0.00;0.00;0.62;7.73;7.03;;;27.10;32.90;;;;;;2244185;61;20397;-55
2022/05/18 06:03:34;0.00;0.00;0.62;0.00;0.00;0.62;7.53;6.80;;;27.10;32.90;;;;;;2244561;61;20461;-57
2022/05/18 06:06:20;0.00;0.00;0.62;0.00;0.00;0.62;7.50;6.73;;;27.00;32.80;;;;;;2244503;61;20416;-56
2022/05/18 06:09:08;0.00;0.00;0.62;0.00;0.00;0.62;8.13;6.40;;;27.00;32.90;;;;;;2244634;61;20376;-57
2022/05/18 06:11:53;0.00;0.00;0.62;0.00;0.00;0.62;6.80;6.20;;;27.00;33.00;;;;;;2244046;61;20372;-56
2022/05/18 06:14:37;0.00;0.00;0.62;0.00;0.00;0.62;8.83;6.40;;;27.00;33.00;;;;;;2244234;61;21004;-59
2022/05/18 06:17:22;0.00;0.00;0.62;0.00;0.00;0.62;8.47;5.43;;;27.00;33.10;;;;;;2244215;61;20396;-56
2022/05/18 06:20:08;0.00;0.00;0.62;0.00;0.00;0.62;6.97;6.37;;;26.90;33.00;;;;;;2244862;61;20360;-57
2022/05/18 06:22:52;0.00;0.00;0.62;0.00;0.00;0.62;6.90;6.20;;;27.00;33.10;;;;;;2244642;61;20784;-57
2022/05/18 06:25:38;0.00;0.00;0.62;0.00;0.00;0.62;5.87;5.23;;;27.00;33.20;;;;;;2244378;61;20520;-58
2022/05/18 06:28:23;0.00;0.00;0.62;0.00;0.00;0.62;6.13;5.40;;;26.90;33.10;;;;;;2244647;61;20368;-54
2022/05/18 06:31:08;0.00;0.00;0.62;0.00;0.00;0.62;5.87;5.37;;;26.90;33.20;;;;;;2244064;61;20777;-57
2022/05/18 06:33:52;0.00;0.00;0.62;0.00;0.00;0.62;7.50;6.07;;;26.90;33.20;;;;;;2244673;61;20416;-55
2022/05/18 06:36:37;0.00;0.00;0.62;0.00;0.00;0.62;7.30;6.57;;;27.00;33.30;;;;;;2244381;61;20380;-58
2022/05/18 06:39:22;0.00;0.00;0.62;0.00;0.00;0.62;6.50;5.90;;;27.00;33.30;;;;;;2244325;61;20393;-59
2022/05/18 06:42:08;0.00;0.00;0.62;0.00;0.00;0.62;6.10;5.50;;;26.90;33.20;;;;;;2244040;61;20416;-60
2022/05/18 06:45:00;0.00;0.00;0.62;0.00;0.00;0.62;6.73;6.07;;;27.00;33.30;;;;;;2249804;61;20385;-55
2022/05/18 06:47:48;0.00;0.00;0.62;0.00;0.00;0.62;6.40;5.77;;;27.00;33.30;;;;;;2243957;61;20408;-58
2022/05/18 06:50:33;0.00;0.00;0.62;0.00;0.00;0.62;6.23;5.63;;;27.00;33.30;;;;;;2243695;61;20381;-62
2022/05/18 06:53:18;0.00;0.00;0.62;0.00;0.00;0.62;7.33;6.63;;;27.00;33.20;;;;;;2244532;61;20932;-66
2022/05/18 06:56:03;0.00;0.00;0.62;0.00;0.00;0.62;6.50;6.00;;;27.00;33.20;;;;;;2244218;61;20419;-59
2022/05/18 06:58:50;0.00;0.00;0.62;0.00;0.00;0.62;7.57;5.63;;;27.00;33.20;;;;;;2244347;61;20364;-57
2022/05/18 07:01:35;0.00;0.00;0.62;0.00;0.00;0.62;5.43;4.93;;;27.00;33.20;;;;;;2244123;61;20473;-58
2022/05/18 07:04:20;0.00;0.00;0.62;0.00;0.00;0.62;7.67;4.87;;;27.00;33.20;;;;;;2244005;61;20436;-57
2022/05/18 07:07:05;0.00;0.00;0.62;0.00;0.00;0.62;6.17;5.57;;;27.00;33.30;;;;;;2244453;61;20380;-58
2022/05/18 07:09:49;0.00;0.00;0.62;0.00;0.00;0.62;5.37;4.87;;;27.00;33.30;;;;;;2244409;61;20453;-57
2022/05/18 07:12:37;0.00;0.00;0.62;0.00;0.00;0.62;5.57;5.00;;;27.00;33.30;;;;;;2243695;61;20881;-60
2022/05/18 07:15:23;0.00;0.00;0.62;0.00;0.00;0.62;4.80;4.43;;;27.00;33.40;;;;;;2244390;61;20392;-60
2022/05/18 07:18:08;0.00;0.00;0.62;0.00;0.00;0.62;5.10;4.47;;;27.10;33.40;;;;;;2243957;61;20412;-60
2022/05/18 07:20:53;0.00;0.00;0.62;0.00;0.00;0.62;6.27;5.00;;;27.10;33.40;;;;;;2243908;61;20396;-60
2022/05/18 07:23:37;0.00;0.00;0.62;0.00;0.00;0.62;4.30;3.90;;;27.10;33.40;;;;;;2244128;61;20369;-60
2022/05/18 07:26:24;0.00;0.00;0.62;0.00;0.00;0.62;4.77;4.37;;;27.10;33.40;;;;;;2244191;61;20436;-60
2022/05/18 07:29:08;0.00;0.00;0.62;0.00;0.00;0.62;5.53;5.03;;;27.20;33.50;;;;;;2249394;61;20445;-62
2022/05/18 07:32:12;0.00;0.00;0.62;0.00;0.00;0.62;5.90;5.17;;;27.20;33.50;;;;;;2243507;61;20360;-61
2022/05/18 07:34:56;0.00;0.00;0.62;0.00;0.00;0.62;4.70;4.30;;;27.20;33.60;;;;;;2243979;61;20392;-56
2022/05/18 07:37:41;0.00;0.00;0.62;0.00;0.00;0.62;4.50;4.10;;;27.20;33.50;;;;;;2243977;61;20443;-63
2022/05/18 07:40:26;0.00;0.00;0.62;0.00;0.00;0.62;5.63;4.63;;;27.20;33.50;;;;;;2243567;61;20364;-63
2022/05/18 07:43:12;0.00;0.00;0.62;0.00;0.00;0.62;4.37;3.87;;;27.30;33.60;;;;;;2243765;61;20768;-64
2022/05/18 07:45:57;0.00;0.00;0.62;0.00;0.00;0.62;4.60;4.20;;;27.30;33.50;;;;;;2244234;61;20961;-61
2022/05/18 07:48:43;0.00;0.00;0.62;0.00;0.00;0.62;4.87;4.47;;;27.30;33.50;;;;;;2244180;61;20357;-61
2022/05/18 07:51:28;0.00;0.00;0.62;0.00;0.00;0.62;4.00;3.60;;;27.40;33.50;;;;;;2244190;61;20372;-59
2022/05/18 07:54:13;0.00;0.00;0.62;0.00;0.00;0.62;7.10;4.27;;;27.40;33.50;;;;;;2243864;61;20468;-62
2022/05/18 07:56:57;0.00;0.00;0.62;0.00;0.00;0.62;5.20;4.70;;;27.40;33.40;;;;;;2244063;61;20852;-64
2022/05/18 07:59:41;0.00;0.00;0.62;0.00;0.00;0.62;7.73;4.90;;;27.40;33.40;;;;;;2244224;61;20360;-62
2022/05/18 08:02:27;0.00;0.00;0.62;0.00;0.00;0.62;8.80;5.70;;;27.50;33.40;;;;;;2248661;61;20389;-62
2022/05/18 08:05:13;0.00;0.00;0.62;0.00;0.00;0.62;4.50;3.93;;;27.60;33.50;;;;;;2244030;61;20392;-55
2022/05/18 08:08:02;0.00;0.00;0.62;0.00;0.00;0.62;5.77;5.10;;;27.60;33.40;;;;;;2244022;61;20372;-65
2022/05/18 08:16:54;0.00;0.00;0.62;0.00;0.00;0.62;6.47;4.83;;;27.70;33.20;;;;;;2244545;61;20431;-63
2022/05/18 08:19:38;0.00;0.00;0.62;0.00;0.00;0.62;4.80;4.40;;;27.70;33.20;;;;;;2244910;61;20415;-61
2022/05/18 08:22:24;0.00;0.00;0.62;0.00;0.00;0.62;4.90;4.43;;;27.80;33.20;;;;;;2249598;61;20695;-62
2022/05/18 08:25:11;0.00;0.00;0.62;0.00;0.00;0.62;5.30;4.80;;;27.80;33.20;;;;;;2244917;61;20428;-60
2022/05/18 08:27:56;0.00;0.00;0.62;0.00;0.00;0.62;7.50;4.30;;;27.80;33.10;;;;;;2244525;61;20825;-62
2022/05/18 08:30:42;0.00;0.00;0.62;0.00;0.00;0.62;4.13;3.73;;;27.80;33.00;;;;;;2244218;61;20499;-66
2022/05/18 08:33:28;0.00;0.00;0.62;0.00;0.00;0.62;4.53;4.13;;;27.90;33.10;;;;;;2244276;61;20453;-63
2022/05/18 08:36:14;0.00;0.00;0.62;0.00;0.00;0.62;3.90;3.50;;;27.90;33.00;;;;;;2244832;61;20389;-61
2022/05/18 08:38:59;0.00;0.00;0.62;0.00;0.00;0.62;3.57;3.27;;;27.90;32.90;;;;;;2244652;61;20364;-66
2022/05/18 08:41:47;0.00;0.00;0.62;0.00;0.00;0.62;4.60;4.20;;;28.00;33.00;;;;;;2244504;61;20779;-64
2022/05/18 08:44:34;0.00;0.00;0.62;0.00;0.00;0.62;5.30;4.80;;;28.00;32.90;;;;;;2244260;61;20834;-61
2022/05/18 08:47:30;0.00;0.00;0.62;0.00;0.00;0.62;9.40;4.90;;;28.00;32.90;;;;;;2244755;61;20368;-64
2022/05/18 08:50:19;0.00;0.00;0.62;0.00;0.00;0.62;5.30;4.60;;;28.10;32.80;;;;;;2244417;61;20412;-59
2022/05/18 08:53:27;0.00;0.00;0.62;0.00;0.00;0.62;4.90;4.50;;;28.10;32.80;;;;;;2244584;61;20377;-60
2022/05/18 08:56:20;0.00;0.00;0.62;0.00;0.00;0.62;5.13;4.63;;;28.10;32.70;;;;;;2244414;61;20387;-64
2022/05/18 08:59:11;0.00;0.00;0.62;0.00;0.00;0.62;5.50;4.70;;;28.10;32.70;;;;;;2245070;61;20415;-65
2022/05/18 09:01:59;0.00;0.00;0.62;0.00;0.00;0.62;4.73;4.20;;;28.20;32.80;;;;;;2243791;61;20427;-64
2022/05/18 09:04:50;0.00;0.00;0.62;0.00;0.00;0.62;6.00;4.80;;;28.20;32.80;;;;;;2244759;61;20406;-60
2022/05/18 09:07:43;0.00;0.00;0.62;0.00;0.00;0.62;7.70;5.07;;;28.20;32.70;;;;;;2244784;61;20412;-62
2022/05/18 09:10:41;0.00;0.00;0.62;0.00;0.00;0.62;5.70;4.90;;;28.20;32.70;;;;;;2244211;61;20448;-63
2022/05/18 09:13:27;0.00;0.00;0.62;0.00;0.00;0.62;5.33;4.63;;;28.30;32.70;;;;;;2244708;61;20385;-64
2022/05/18 09:16:28;0.00;0.00;0.62;0.00;0.00;0.62;5.00;4.60;;;28.30;32.70;;;;;;2249437;61;20513;-61
2022/05/18 09:19:23;0.00;0.00;0.62;0.00;0.00;0.62;5.73;4.53;;;28.30;32.80;;;;;;2244326;61;20428;-63
2022/05/18 09:22:21;0.00;0.00;0.62;0.00;0.00;0.62;6.20;4.70;;;28.30;33.00;;;;;;2244319;61;20380;-64
2022/05/18 09:25:20;0.00;0.00;0.62;0.00;0.00;0.62;6.33;4.60;;;28.40;33.10;;;;;;2244736;61;20481;-63
2022/05/18 09:28:22;0.00;0.00;0.62;0.00;0.00;0.62;4.80;4.33;;;28.40;33.10;;;;;;2244612;61;20380;-65
2022/05/18 09:31:22;0.00;0.00;0.62;0.00;0.00;0.62;5.20;4.70;;;28.40;33.10;;;;;;2243854;61;20865;-64
2022/05/18 09:34:29;0.00;0.00;0.62;0.00;0.00;0.62;4.77;4.37;;;28.50;33.10;;;;;;2244155;61;20436;-61
2022/05/18 09:37:28;0.00;0.00;0.62;0.00;0.00;0.62;5.50;4.50;;;28.50;33.80;;;;;;2244298;61;20384;-60
2022/05/18 09:40:19;0.00;0.00;0.62;0.00;0.00;0.62;4.83;4.43;;;28.50;33.00;;;;;;2244180;61;20432;-65
2022/05/18 09:43:10;0.00;0.00;0.62;0.00;0.00;0.62;5.50;5.00;;;28.50;33.00;;;;;;2244433;61;20380;-67
2022/05/18 09:45:56;0.00;0.00;0.62;0.00;0.00;0.62;7.23;4.40;;;28.50;33.00;;;;;;2244292;61;20803;-61
2022/05/18 09:48:51;0.00;0.00;0.62;0.00;0.00;0.62;4.83;4.00;;;28.60;32.90;;;;;;2244471;61;20356;-70
2022/05/18 09:51:36;0.00;0.00;0.62;0.00;0.00;0.62;5.03;4.53;;;28.60;32.90;;;;;;2243981;61;20734;-63
2022/05/18 09:54:21;0.00;0.00;0.62;0.00;0.00;0.62;4.60;4.20;;;28.60;32.80;;;;;;2244297;61;20457;-61
2022/05/18 09:57:13;0.00;0.00;0.62;0.00;0.00;0.62;4.57;3.80;;;28.60;32.60;;;;;;2244504;61;20945;-64
2022/05/18 10:00:04;0.00;0.00;0.62;0.00;0.00;0.62;6.57;4.00;;;28.70;32.60;;;;;;2243775;61;20882;-63
2022/05/18 10:09:17;0.00;0.00;0.62;0.00;0.00;0.62;4.63;4.17;;;28.80;32.70;;;;;;2244391;61;20381;-61
2022/05/18 10:12:12;0.00;0.00;0.62;0.00;0.00;0.62;4.37;3.97;;;28.80;32.60;;;;;;2246069;61;20371;-57
2022/05/18 10:15:02;0.00;0.00;0.62;0.00;0.00;0.62;4.40;4.00;;;28.80;32.40;;;;;;2689425;45;20444;-61
2022/05/18 10:17:52;0.00;0.00;0.62;0.00;0.00;0.62;3.80;3.13;;;28.80;32.30;;;;;;2239882;61;20486;-60
2022/05/18 10:20:38;0.00;0.00;0.62;0.00;0.00;0.62;5.30;4.40;;;28.80;32.30;;;;;;2240248;61;20787;-56
2022/05/18 10:23:34;0.00;0.00;0.62;0.00;0.00;0.62;4.70;3.50;;;28.90;32.30;;;;;;2242349;61;20420;-57
2022/05/18 10:26:27;0.00;0.00;0.62;0.00;0.00;0.62;4.00;3.60;;;28.90;32.30;;;;;;2244253;61;20476;-57
2022/05/18 10:29:23;0.00;0.00;0.62;0.00;0.00;0.62;4.27;3.87;;;28.90;32.20;;;;;;2244061;61;20376;-59
2022/05/18 10:32:11;0.00;0.00;0.62;0.00;0.00;0.62;6.23;4.30;;;28.90;32.10;;;;;;2243759;61;20401;-58
2022/05/18 10:34:56;0.00;0.00;0.62;0.00;0.00;0.62;4.10;3.60;;;29.00;31.90;;;;;;2244387;61;20424;-58
2022/05/18 10:37:41;0.00;0.00;0.62;0.00;0.00;0.62;4.90;3.60;;;29.00;31.90;;;;;;2243909;61;20451;-61
2022/05/18 10:40:27;0.00;0.00;0.62;0.00;0.00;0.62;5.63;3.70;;;29.00;31.70;;;;;;2243874;61;20412;-58
2022/05/18 10:43:29;0.00;0.00;0.62;0.00;0.00;0.62;3.73;3.17;;;29.00;31.30;;;;;;2244311;61;20772;-61
2022/05/18 10:46:19;0.00;0.00;0.62;0.00;0.00;0.62;3.63;3.33;;;29.00;31.20;;;;;;2244489;61;20423;-60
2022/05/18 10:49:08;0.00;0.00;0.62;0.00;0.00;0.62;3.67;3.00;;;29.10;31.00;;;;;;2244479;61;20364;-59
2022/05/18 10:51:53;0.00;0.00;0.62;0.00;0.00;0.62;3.53;3.23;;;29.10;30.90;;;;;;2243697;61;20400;-60
2022/05/18 10:54:39;0.00;0.00;0.62;0.00;0.00;0.62;4.20;3.80;;;29.10;30.80;;;;;;2243854;61;20384;-59
2022/05/18 10:57:38;0.00;0.00;0.62;0.00;0.00;0.62;5.37;3.37;;;29.10;30.70;;;;;;2244344;61;20435;-58
2022/05/18 11:00:28;0.00;0.00;0.62;0.00;0.00;0.62;3.93;3.53;;;29.10;30.50;;;;;;2243485;61;20369;-60
2022/05/18 11:03:22;0.00;0.00;0.62;0.00;0.00;0.62;4.53;3.13;;;29.20;30.60;;;;;;2244039;61;20902;-59
2022/05/18 11:06:13;0.00;0.00;0.62;0.00;0.00;0.62;5.27;3.67;;;29.20;30.20;;;;;;2244347;61;20388;-59
2022/05/18 11:09:00;0.00;0.00;0.62;0.00;0.00;0.62;3.23;2.93;;;29.20;30.30;;;;;;2244095;61;20356;-59
2022/05/18 11:11:55;0.00;0.00;0.62;0.00;0.00;0.62;3.77;3.47;;;29.20;30.00;;;;;;2243946;61;20453;-58
2022/05/18 11:14:50;0.00;0.00;0.62;0.00;0.00;0.62;4.97;3.40;;;29.20;30.00;;;;;;2243747;61;20484;-54
2022/05/18 11:17:49;0.00;0.00;0.62;0.00;0.00;0.62;5.37;3.43;;;29.20;29.90;;;;;;2243787;61;20393;-58
2022/05/18 11:20:45;0.00;0.00;0.62;0.00;0.00;0.62;4.10;3.70;;;29.30;30.10;;;;;;2243954;61;20369;-55